Time;durP1;ratioP1;P1;durP2;ratioP2;P2;SDS_P1;SDS_P2;PMS_P1;PMS_P2;Temp;Humidity;BMP_temperature;BMP_pressure;BME280_temperature;BME280_humidity;BME280_pressure;Samples;Min_cycle;Max_cycle;Signal;HPM_P1;HPM_P2
2023/02/27 00:01:43;;;;;;;6.97;1.17;;;;;;;-146.27;82.47;48475.28;5086392;28;20023;-79
2023/02/27 00:04:09;;;;;;;4.18;0.73;;;;;;;-146.27;81.73;48419.50;5090112;28;20028;-79
2023/02/27 00:06:34;;;;;;;2.65;1.13;;;;;;;-146.27;81.65;48419.50;5087728;28;20198;-79
2023/02/27 00:08:59;;;;;;;5.68;1.00;;;;;;;-146.27;82.61;48435.44;5090164;28;20016;-79
2023/02/27 00:11:25;;;;;;;3.63;0.77;;;;;;;-146.27;80.48;48423.50;5083135;28;20092;-79
2023/02/27 00:13:50;;;;;;;3.15;1.00;;;;;;;-146.27;80.92;48415.53;5087876;28;20028;-79
2023/02/27 00:16:16;;;;;;;11.23;1.80;;;;;;;-146.27;82.52;48451.38;5088740;28;20028;-78
2023/02/27 00:18:41;;;;;;;13.00;3.95;;;;;;;-146.27;82.35;48391.63;5088595;28;20036;-80
2023/02/27 00:21:07;;;;;;;6.70;2.72;;;;;;;-146.27;81.71;48441.41;5092024;28;20377;-78
2023/02/27 00:23:32;;;;;;;5.72;3.00;;;;;;;-146.27;82.45;48413.53;5087856;28;20024;-77
2023/02/27 00:25:59;;;;;;;5.80;1.17;;;;;;;-146.27;82.15;48459.34;5090003;28;20118;-77
2023/02/27 00:28:26;;;;;;;4.85;1.00;;;;;;;-146.27;81.31;48415.53;5090720;28;20034;-79
2023/02/27 00:30:51;;;;;;;6.05;1.05;;;;;;;-146.27;80.48;48411.53;5089325;28;20052;-78
2023/02/27 00:33:17;;;;;;;4.32;0.90;;;;;;;-146.27;80.51;48407.56;5076973;28;20066;-78
2023/02/27 00:35:42;;;;;;;4.97;1.20;;;;;;;-146.27;79.44;48403.56;5090626;28;20464;-79
2023/02/27 00:38:07;;;;;;;10.52;1.17;;;;;;;-146.27;79.98;48435.44;5084480;28;20020;-78
2023/02/27 00:40:34;;;;;;;4.60;1.02;;;;;;;-146.27;79.44;48425.47;5092467;28;20024;-80
2023/02/27 00:43:03;;;;;;;4.68;1.15;;;;;;;-146.27;79.88;48399.59;5082612;28;20491;-78
2023/02/27 00:45:29;;;;;;;3.80;1.10;;;;;;;-146.27;77.90;48403.56;5090709;28;20081;-78
2023/02/27 00:47:54;;;;;;;6.22;0.82;;;;;;;-146.27;78.61;48437.44;5097131;28;20515;-80
2023/02/27 00:50:20;;;;;;;7.40;0.95;;;;;;;-146.27;78.79;48401.56;5088920;28;20028;-78
2023/02/27 00:52:45;;;;;;;6.40;1.00;;;;;;;-146.27;78.19;48427.47;5080541;28;20127;-77
2023/02/27 00:55:11;;;;;;;2.58;0.95;;;;;;;-146.27;79.17;48459.34;5087933;28;20089;-78
2023/02/27 00:57:37;;;;;;;6.47;0.75;;;;;;;-146.27;77.37;48455.34;5095415;28;20496;-79
2023/02/27 01:00:05;;;;;;;1.67;0.75;;;;;;;-146.27;77.94;48397.59;5086806;28;20026;-78
2023/02/27 01:02:30;;;;;;;7.22;1.00;;;;;;;-146.27;77.69;48413.53;5087718;28;20061;-79
2023/02/27 01:04:56;;;;;;;3.25;0.65;;;;;;;-146.27;77.22;48373.69;5093830;28;20099;-77
2023/02/27 01:07:21;;;;;;;3.80;0.77;;;;;;;-146.27;77.77;48415.53;5093820;28;20044;-79
2023/02/27 01:09:46;;;;;;;7.45;1.00;;;;;;;-146.27;77.78;48407.56;5095844;28;20089;-79
2023/02/27 01:12:13;;;;;;;5.57;1.20;;;;;;;-146.27;78.72;48455.34;5093456;28;20047;-77
2023/02/27 01:14:38;;;;;;;3.85;0.95;;;;;;;-146.27;78.20;48439.41;5092668;28;20059;-80
2023/02/27 01:17:04;;;;;;;1.33;0.85;;;;;;;-146.27;78.68;48395.59;5091501;28;20039;-78
2023/02/27 01:19:29;;;;;;;5.63;0.90;;;;;;;-146.27;77.98;48415.53;5091559;28;20020;-80
2023/02/27 01:21:54;;;;;;;5.80;1.20;;;;;;;-146.27;77.45;48423.50;5080821;28;20032;-80
2023/02/27 01:24:20;;;;;;;5.57;0.98;;;;;;;-146.27;78.60;48423.50;5093477;28;20464;-79
2023/02/27 01:26:46;;;;;;;2.67;0.75;;;;;;;-146.27;77.60;48457.34;5083648;28;20090;-79
2023/02/27 01:29:12;;;;;;;6.90;1.83;;;;;;;-146.27;78.38;48445.41;5089359;28;20022;-78
2023/02/27 01:31:37;;;;;;;3.17;0.85;;;;;;;-146.27;80.95;48427.47;5087001;28;20419;-78
2023/02/27 01:34:02;;;;;;;7.68;1.55;;;;;;;-146.27;80.93;48457.34;5093414;28;20030;-77
2023/02/27 01:36:29;;;;;;;3.15;0.70;;;;;;;-146.27;77.92;48435.44;5093655;28;20054;-78
2023/02/27 01:38:54;;;;;;;4.38;1.98;;;;;;;-146.27;80.13;48465.31;5092186;28;20023;-78
2023/02/27 01:41:20;;;;;;;2.42;0.88;;;;;;;-146.27;79.12;48425.47;5090785;28;20020;-78
2023/02/27 01:43:57;;;;;;;4.10;1.30;;;;;;;-146.27;78.94;48455.34;5089379;28;20032;-79
2023/02/27 01:46:23;;;;;;;3.30;0.80;;;;;;;-146.27;79.09;48435.44;5093979;28;20081;-80
2023/02/27 01:48:53;;;;;;;3.88;1.60;;;;;;;-146.27;81.03;48459.34;5089618;28;20025;-78
2023/02/27 01:51:20;;;;;;;5.43;1.25;;;;;;;-146.27;80.84;48395.59;5089104;28;20023;-78
2023/02/27 01:53:51;;;;;;;2.42;0.93;;;;;;;-146.27;81.43;48419.50;5094387;28;20024;-79
2023/02/27 01:56:35;;;;;;;7.10;1.50;;;;;;;-146.27;81.73;48435.44;5092234;28;20494;-78
2023/02/27 01:59:05;;;;;;;5.35;0.90;;;;;;;-146.27;82.90;48443.41;5092454;28;20472;-78
2023/02/27 02:01:33;;;;;;;2.53;0.98;;;;;;;-146.27;84.26;48437.44;5089088;28;20016;-78
2023/02/27 02:04:28;;;;;;;3.55;1.00;;;;;;;-146.27;84.38;48451.38;5092364;28;20031;-79
2023/02/27 02:07:06;;;;;;;2.70;0.73;;;;;;;-146.27;82.80;48463.31;5091083;28;20519;-79
2023/02/27 02:09:36;;;;;;;9.75;1.10;;;;;;;-146.27;83.31;48413.53;5092780;28;20039;-80
2023/02/27 02:12:02;;;;;;;2.47;0.95;;;;;;;-146.27;84.37;48401.56;5085415;28;20017;-78
2023/02/27 02:14:28;;;;;;;8.35;1.15;;;;;;;-146.27;83.98;48421.50;5088522;28;20488;-77
2023/02/27 02:16:59;;;;;;;4.15;1.00;;;;;;;-146.27;83.38;48439.41;5092560;28;20024;-80
2023/02/27 02:20:09;;;;;;;10.02;1.45;;;;;;;-146.27;84.54;48423.50;5091358;28;20040;-77
2023/02/27 02:23:15;;;;;;;6.00;1.10;;;;;;;-146.27;84.71;48443.41;5089409;28;20606;-79
2023/02/27 02:25:59;;;;;;;3.30;1.35;;;;;;;-146.27;84.27;48427.47;5090598;28;20044;-78
2023/02/27 02:28:43;;;;;;;;;;;;;;;-146.27;84.95;48419.50;5087810;28;20101;-78
2023/02/27 02:31:30;;;;;;;3.47;1.23;;;;;;;-146.27;85.31;48455.34;5092040;28;20278;-79
2023/02/27 02:34:17;;;;;;;3.53;1.20;;;;;;;-146.27;86.23;48459.34;5092806;28;20096;-79
2023/02/27 02:37:00;;;;;;;3.03;1.08;;;;;;;-146.27;87.37;48439.41;5089112;28;20088;-80
2023/02/27 02:39:50;;;;;;;5.20;0.82;;;;;;;-146.27;86.42;48411.53;5089960;28;20063;-78
2023/02/27 02:42:21;;;;;;;3.53;0.93;;;;;;;-146.27;86.83;48421.50;5085251;28;20024;-79
2023/02/27 02:45:28;;;;;;;1.67;0.82;;;;;;;-146.27;87.92;48459.34;5090988;28;20138;-79
2023/02/27 02:48:05;;;;;;;0.68;0.63;;;;;;;-146.27;88.86;48417.50;5084455;28;20036;-79
2023/02/27 02:51:01;;;;;;;6.45;1.00;;;;;;;-146.27;88.40;48427.47;5091109;28;20024;-78
2023/02/27 02:53:39;;;;;;;2.50;1.17;;;;;;;-146.27;89.26;48425.47;5090048;28;20043;-80
2023/02/27 02:56:23;;;;;;;5.75;1.10;;;;;;;-146.27;90.21;48443.41;5089133;28;20024;-78
2023/02/27 02:59:04;;;;;;;7.50;0.90;;;;;;;-146.27;90.36;48433.44;5083895;28;20031;-77
2023/02/27 03:01:42;;;;;;;5.13;1.38;;;;;;;-146.27;90.26;48429.47;5081519;28;20130;-78
2023/02/27 03:04:15;;;;;;;7.05;1.30;;;;;;;-146.27;91.78;48423.50;5090822;28;20063;-78
2023/02/27 03:06:46;;;;;;;6.10;0.82;;;;;;;-146.27;90.68;48419.50;5090278;28;20052;-79
2023/02/27 03:09:17;;;;;;;4.50;1.20;;;;;;;-146.27;91.13;48467.31;5084463;28;20024;-78
2023/02/27 03:11:48;;;;;;;2.72;1.05;;;;;;;-146.27;90.55;48459.34;5090625;28;20071;-80
2023/02/27 03:14:25;;;;;;;3.28;1.05;;;;;;;-146.27;91.00;48407.56;5084219;28;20024;-79
2023/02/27 03:16:54;;;;;;;4.43;0.98;;;;;;;-146.27;90.51;48409.53;5088107;28;20028;-79
2023/02/27 03:19:26;;;;;;;2.42;0.70;;;;;;;-146.27;91.63;48449.38;5088804;28;20108;-77
2023/02/27 03:22:05;;;;;;;1.95;1.13;;;;;;;-146.27;91.74;48447.38;5088847;28;20081;-81
2023/02/27 03:24:33;;;;;;;2.47;0.90;;;;;;;-146.27;91.28;48435.44;5091759;28;20522;-78
2023/02/27 03:27:01;;;;;;;2.30;1.10;;;;;;;-146.27;92.26;48467.31;5086923;28;20042;-78
2023/02/27 03:30:02;;;;;;;3.65;0.90;;;;;;;-146.27;91.90;48441.41;5088134;28;20024;-77
2023/02/27 03:32:38;;;;;;;1.83;0.77;;;;;;;-146.27;92.59;48443.41;5075588;28;20040;-79
2023/02/27 03:35:06;;;;;;;6.63;0.98;;;;;;;-146.27;92.63;48459.34;5092041;28;20486;-79
2023/02/27 03:38:10;;;;;;;2.63;1.00;;;;;;;-146.27;91.86;48419.50;5093554;28;20032;-77
2023/02/27 03:40:41;;;;;;;2.83;1.00;;;;;;;-146.27;91.88;48447.38;5089034;28;20027;-80
2023/02/27 03:43:28;;;;;;;3.30;1.00;;;;;;;-146.27;92.74;48413.53;5082286;28;20486;-80
2023/02/27 03:46:01;;;;;;;2.63;1.13;;;;;;;-146.27;92.31;48431.47;5087658;28;20032;-78
2023/02/27 03:48:27;;;;;;;4.15;1.15;;;;;;;-146.27;93.70;48439.41;5084606;28;20077;-78
2023/02/27 03:50:52;;;;;;;4.65;1.10;;;;;;;-146.27;92.08;48451.38;5087301;28;20028;-80
2023/02/27 03:53:33;;;;;;;6.47;1.40;;;;;;;-146.27;92.40;48417.50;5087419;28;20019;-78
2023/02/27 03:56:02;;;;;;;5.95;1.00;;;;;;;-146.27;92.68;48445.41;5088801;28;20129;-78
2023/02/27 03:58:29;;;;;;;3.83;0.98;;;;;;;-146.27;92.87;48451.38;5079502;28;20145;-79
2023/02/27 04:00:54;;;;;;;3.40;1.40;;;;;;;-146.27;93.27;48443.41;5087419;28;20020;-79
2023/02/27 04:03:20;;;;;;;3.60;1.10;;;;;;;-146.27;92.77;48459.34;5089826;28;20024;-77
2023/02/27 04:05:46;;;;;;;2.50;1.20;;;;;;;-146.27;93.00;48459.34;5089412;28;20044;-79
2023/02/27 04:08:20;;;;;;;9.88;1.63;;;;;;;-146.27;94.46;48451.38;5089866;28;20076;-78
2023/02/27 04:11:01;;;;;;;5.60;1.52;;;;;;;-146.27;94.00;48459.34;5081147;28;20094;-79
2023/02/27 04:13:47;;;;;;;6.72;1.70;;;;;;;-146.27;94.21;48449.38;5088506;28;20069;-80
2023/02/27 04:16:15;;;;;;;3.92;1.60;;;;;;;-146.27;94.74;48459.34;5088551;28;20087;-78
2023/02/27 04:19:03;;;;;;;5.93;1.55;;;;;;;-146.27;94.50;48415.53;5084850;28;20021;-80
2023/02/27 04:21:42;;;;;;;6.57;1.60;;;;;;;-146.27;94.17;48435.44;5084747;28;20039;-80
2023/02/27 04:24:20;;;;;;;5.95;1.40;;;;;;;-146.27;94.74;48445.41;5089124;28;20058;-79
2023/02/27 04:26:51;;;;;;;6.25;1.58;;;;;;;-146.27;95.11;48447.38;5090196;28;20073;-79
2023/02/27 04:29:24;;;;;;;2.42;1.33;;;;;;;-146.27;95.44;48435.44;5091750;28;20032;-79
2023/02/27 04:32:14;;;;;;;7.10;2.00;;;;;;;-146.27;95.60;48443.41;5092228;28;20424;-79
2023/02/27 04:34:47;;;;;;;7.13;1.65;;;;;;;-146.27;96.34;48417.50;5082934;28;20023;-78
2023/02/27 04:37:40;;;;;;;3.40;1.65;;;;;;;-146.27;96.25;48429.47;5092720;28;20032;-78
2023/02/27 04:40:10;;;;;;;4.15;1.67;;;;;;;-146.27;96.75;48435.44;5090995;28;20032;-79
2023/02/27 04:42:45;;;;;;;5.15;2.30;;;;;;;-146.27;96.86;48415.53;5078946;28;20065;-78
2023/02/27 04:45:14;;;;;;;5.82;1.83;;;;;;;-146.27;97.21;48411.53;5089773;28;20509;-77
2023/02/27 04:47:56;;;;;;;3.17;2.10;;;;;;;-146.27;97.83;48449.38;5093359;28;20391;-77
2023/02/27 04:50:30;;;;;;;7.68;2.85;;;;;;;-146.27;97.81;48419.50;5085465;28;20384;-79
2023/02/27 04:53:12;;;;;;;5.22;2.22;;;;;;;-146.27;97.34;48447.38;5094587;28;20030;-78
2023/02/27 04:55:44;;;;;;;11.57;2.78;;;;;;;-146.27;97.08;48459.34;5094567;28;20043;-77
2023/02/27 04:58:28;;;;;;;4.60;2.25;;;;;;;-146.27;98.03;48423.50;5086918;28;20012;-80
2023/02/27 05:01:00;;;;;;;4.75;2.40;;;;;;;-146.27;98.60;48445.41;5084524;28;20383;-77
2023/02/27 05:03:34;;;;;;;5.68;2.40;;;;;;;-146.27;98.30;48465.31;5094102;28;20468;-80
2023/02/27 05:06:01;;;;;;;9.85;3.00;;;;;;;-146.27;98.69;48475.28;5093302;28;20099;-79
2023/02/27 05:09:00;;;;;;;13.40;2.97;;;;;;;-146.27;98.52;48499.19;5090954;28;20024;-78
2023/02/27 05:11:31;;;;;;;4.40;2.33;;;;;;;-146.27;98.68;48417.50;5088312;28;20043;-77
2023/02/27 05:14:19;;;;;;;4.95;2.55;;;;;;;-146.27;99.70;48451.38;5093061;28;20031;-79
2023/02/27 05:16:55;;;;;;;8.75;2.83;;;;;;;-146.27;99.65;48423.50;5090957;28;20032;-76
2023/02/27 05:19:21;;;;;;;4.43;2.30;;;;;;;-146.27;99.11;48445.41;5082489;28;20031;-78
2023/02/27 05:22:05;;;;;;;8.48;2.78;;;;;;;-146.27;100.00;48415.53;5090371;28;20024;-78
2023/02/27 05:24:48;;;;;;;6.30;2.42;;;;;;;-146.27;99.64;48445.41;5092645;28;20064;-79
2023/02/27 05:27:24;;;;;;;13.32;2.40;;;;;;;-146.27;99.80;48467.31;5093140;28;20072;-80
2023/02/27 05:29:51;;;;;;;7.30;2.75;;;;;;;-146.27;100.00;48439.41;5091918;28;20368;-80
2023/02/27 05:32:44;;;;;;;5.80;2.67;;;;;;;-146.27;100.00;48447.38;5089652;28;20081;-80
2023/02/27 05:35:19;;;;;;;4.85;2.75;;;;;;;-146.27;99.98;48479.25;5091179;28;20028;-78
2023/02/27 05:37:47;;;;;;;4.13;2.40;;;;;;;-146.27;100.00;48443.41;5093129;28;20453;-79
2023/02/27 05:40:18;;;;;;;4.03;2.60;;;;;;;-146.27;100.00;48455.34;5091721;28;20456;-78
2023/02/27 05:42:55;;;;;;;11.70;3.25;;;;;;;-146.27;100.00;48423.50;5093176;28;20020;-78
2023/02/27 05:45:27;;;;;;;12.30;3.03;;;;;;;-146.27;100.00;48467.31;5089450;28;20024;-78
2023/02/27 05:48:01;;;;;;;11.65;3.53;;;;;;;-146.27;100.00;48405.56;5092297;28;20111;-80
2023/02/27 05:50:31;;;;;;;10.80;3.40;;;;;;;-146.27;100.00;48465.31;5089737;28;20094;-79
2023/02/27 05:53:01;;;;;;;10.20;4.38;;;;;;;-146.27;100.00;48443.41;5094221;28;20028;-79
2023/02/27 05:55:32;;;;;;;12.10;3.88;;;;;;;-146.27;100.00;48439.41;5092168;28;20530;-78
2023/02/27 05:58:05;;;;;;;10.48;3.17;;;;;;;-146.27;100.00;48413.53;5094132;28;20028;-79
2023/02/27 06:00:42;;;;;;;6.95;2.75;;;;;;;-146.27;100.00;48459.34;5091389;28;20181;-79
2023/02/27 06:03:08;;;;;;;6.65;2.97;;;;;;;-146.27;100.00;48471.28;5080951;28;20043;-79
2023/02/27 06:05:36;;;;;;;9.23;3.15;;;;;;;-146.27;100.00;48419.50;5087909;28;20028;-79
2023/02/27 06:08:02;;;;;;;10.40;3.63;;;;;;;-146.27;100.00;48467.31;5088305;28;20032;-79
2023/02/27 06:10:27;;;;;;;4.07;2.92;;;;;;;-146.27;100.00;48435.44;5089343;28;20036;-78
2023/02/27 06:12:53;;;;;;;6.90;3.75;;;;;;;-146.27;100.00;48489.22;5093019;28;20420;-79
2023/02/27 06:15:18;;;;;;;10.68;3.42;;;;;;;-146.27;100.00;48449.38;5093192;28;20077;-78
2023/02/27 06:17:44;;;;;;;7.68;3.58;;;;;;;-146.27;100.00;48437.44;5085464;28;20361;-77
2023/02/27 06:20:10;;;;;;;9.68;3.60;;;;;;;-146.27;100.00;48453.38;5091801;28;20039;-79
2023/02/27 06:22:36;;;;;;;14.02;4.22;;;;;;;-146.27;100.00;48485.22;5090562;28;20107;-78
2023/02/27 06:25:01;;;;;;;12.73;5.82;;;;;;;-146.27;100.00;48461.34;5088418;28;20424;-78
2023/02/27 06:27:27;;;;;;;9.50;4.00;;;;;;;-146.27;100.00;48449.38;5093566;28;20032;-75
2023/02/27 06:29:53;;;;;;;8.48;3.45;;;;;;;-146.27;100.00;48469.31;5091388;28;20062;-74
2023/02/27 06:32:19;;;;;;;5.22;3.13;;;;;;;-146.27;100.00;48419.50;5091016;28;20027;-75
2023/02/27 06:34:45;;;;;;;7.57;3.17;;;;;;;-146.27;100.00;48475.28;5083369;28;20535;-79
2023/02/27 06:37:10;;;;;;;6.95;2.80;;;;;;;-146.27;100.00;48439.41;5087128;28;20165;-79
2023/02/27 06:39:36;;;;;;;4.30;2.67;;;;;;;-146.27;100.00;48439.41;5089769;28;20514;-78
2023/02/27 06:42:02;;;;;;;6.50;2.40;;;;;;;-146.27;100.00;48483.25;5083292;28;20387;-77
2023/02/27 06:44:28;;;;;;;14.90;2.50;;;;;;;-146.27;100.00;48463.31;5088842;28;20040;-79
2023/02/27 06:46:53;;;;;;;7.40;2.55;;;;;;;-146.27;100.00;48435.44;5070371;28;20471;-79
2023/02/27 06:49:19;;;;;;;11.32;2.97;;;;;;;-146.27;100.00;48435.44;5090717;28;20165;-78
2023/02/27 06:51:44;;;;;;;11.77;2.60;;;;;;;-146.27;100.00;48445.41;5088806;28;20035;-79
2023/02/27 06:54:09;;;;;;;7.03;2.50;;;;;;;-146.27;100.00;48477.25;5085298;28;20020;-77
2023/02/27 06:56:35;;;;;;;6.47;2.90;;;;;;;-146.27;100.00;48459.34;5088614;28;20028;-76
2023/02/27 06:59:00;;;;;;;5.80;2.63;;;;;;;-146.27;100.00;48455.34;5088659;28;20142;-75
2023/02/27 07:01:26;;;;;;;6.47;2.97;;;;;;;-146.27;100.00;48419.50;5087316;28;20357;-76
2023/02/27 07:03:51;;;;;;;8.98;2.30;;;;;;;-146.27;100.00;48443.41;5086105;28;20020;-77
2023/02/27 07:06:16;;;;;;;6.70;2.88;;;;;;;-146.27;100.00;48457.34;5090986;28;20147;-75
2023/02/27 07:08:42;;;;;;;8.15;2.35;;;;;;;-146.27;100.00;48455.34;5089954;28;20501;-77
2023/02/27 07:11:07;;;;;;;9.32;2.55;;;;;;;-146.27;100.00;48487.22;5089587;28;20535;-75
2023/02/27 07:13:33;;;;;;;5.93;2.63;;;;;;;-146.27;100.00;48451.38;5091461;28;20548;-76
2023/02/27 07:15:58;;;;;;;4.53;2.58;;;;;;;-146.27;100.00;48435.44;5087097;28;20042;-77
2023/02/27 07:18:24;;;;;;;13.82;3.65;;;;;;;-146.27;100.00;48455.34;5082792;28;20031;-77
2023/02/27 07:20:50;;;;;;;14.65;3.33;;;;;;;-146.27;100.00;48451.38;5087462;28;20503;-76
2023/02/27 07:23:16;;;;;;;7.45;2.67;;;;;;;-146.27;100.00;48453.38;5080339;28;20093;-77
2023/02/27 07:25:41;;;;;;;4.88;2.47;;;;;;;-146.27;100.00;48445.41;5088444;28;20020;-77
2023/02/27 07:28:06;;;;;;;9.68;3.22;;;;;;;-146.27;100.00;48471.28;5074667;28;20029;-76
2023/02/27 07:30:32;;;;;;;11.35;2.60;;;;;;;-146.27;100.00;48481.25;5086639;28;20028;-76
2023/02/27 07:32:57;;;;;;;8.20;3.00;;;;;;;-146.27;100.00;48439.41;5080232;28;20512;-76
2023/02/27 07:35:23;;;;;;;10.13;2.85;;;;;;;-146.27;100.00;48471.28;5079245;28;20445;-77
2023/02/27 07:37:48;;;;;;;19.33;2.80;;;;;;;-146.27;100.00;48445.41;5079865;28;20055;-73
2023/02/27 07:40:14;;;;;;;11.38;2.70;;;;;;;-146.27;100.00;48443.41;5091511;28;20028;-75
2023/02/27 07:42:39;;;;;;;3.45;2.10;;;;;;;-146.27;100.00;48423.50;5088228;28;20468;-77
2023/02/27 07:45:05;;;;;;;11.77;3.00;;;;;;;-146.27;100.00;48447.38;5089934;28;20085;-78
2023/02/27 07:47:30;;;;;;;4.63;2.75;;;;;;;-146.27;100.00;48443.41;5089813;28;20391;-77
2023/02/27 07:49:56;;;;;;;11.20;3.17;;;;;;;-146.27;100.00;48443.41;5092206;28;20016;-77
2023/02/27 07:52:21;;;;;;;8.80;2.83;;;;;;;-146.27;100.00;48445.41;5087711;28;20021;-77
2023/02/27 07:54:46;;;;;;;10.23;2.45;;;;;;;-146.27;100.00;48407.56;5084701;28;20054;-79
2023/02/27 07:57:12;;;;;;;7.47;2.58;;;;;;;-146.27;100.00;48451.38;5091875;28;20082;-77
2023/02/27 07:59:38;;;;;;;6.35;2.80;;;;;;;-146.27;100.00;48407.56;5092158;28;20020;-75
2023/02/27 08:02:03;;;;;;;7.57;2.08;;;;;;;-146.27;100.00;48427.47;5086697;28;20472;-76
2023/02/27 08:04:29;;;;;;;12.13;3.15;;;;;;;-146.27;100.00;48489.22;5085993;28;20108;-78
2023/02/27 08:06:54;;;;;;;5.30;2.75;;;;;;;-146.27;100.00;48461.34;5096234;28;20548;-77
2023/02/27 08:09:19;;;;;;;5.80;2.67;;;;;;;-146.27;100.00;48461.34;5094476;28;20040;-78
2023/02/27 08:11:45;;;;;;;4.82;2.30;;;;;;;-146.27;100.00;48481.25;5093327;28;20503;-77
2023/02/27 08:14:10;;;;;;;8.27;2.70;;;;;;;-146.27;100.00;48415.53;5095049;28;20477;-78
2023/02/27 08:16:36;;;;;;;9.75;2.95;;;;;;;-146.27;99.87;48447.38;5094179;28;20506;-73
2023/02/27 08:19:01;;;;;;;5.40;2.67;;;;;;;-146.27;99.63;48487.22;5093462;28;20155;-74
2023/02/27 08:21:28;;;;;;;6.38;2.65;;;;;;;-146.27;99.90;48487.22;5085887;28;20034;-74
2023/02/27 08:23:53;;;;;;;9.35;2.70;;;;;;;-146.27;99.42;48411.53;5074771;28;20328;-74
2023/02/27 08:26:19;;;;;;;7.57;2.63;;;;;;;-146.27;99.50;48447.38;5075791;28;20032;-72
2023/02/27 08:28:44;;;;;;;8.45;2.60;;;;;;;-146.27;99.54;48487.22;5075584;28;20030;-73
2023/02/27 08:31:09;;;;;;;5.85;2.50;;;;;;;-146.27;99.17;48463.31;5094352;28;20020;-74
2023/02/27 08:33:35;;;;;;;6.05;2.85;;;;;;;-146.27;99.79;48419.50;5095264;28;20456;-74
2023/02/27 08:36:00;;;;;;;6.25;2.42;;;;;;;-146.27;100.00;48413.53;5093370;28;20051;-72
2023/02/27 08:38:25;;;;;;;11.43;2.90;;;;;;;-146.27;100.00;48455.34;5092400;28;20067;-78
2023/02/27 08:40:54;;;;;;;6.38;2.33;;;;;;;-146.27;100.00;48439.41;5093108;28;20081;-73
2023/02/27 08:43:20;;;;;;;13.02;2.40;;;;;;;-146.27;100.00;48455.34;5095662;28;20066;-73
2023/02/27 08:45:47;;;;;;;6.15;2.72;;;;;;;-146.27;100.00;48439.41;5092871;28;20043;-74
2023/02/27 08:48:14;;;;;;;8.10;2.55;;;;;;;-146.27;100.00;48475.28;5095437;28;20103;-74
2023/02/27 08:50:41;;;;;;;7.65;3.42;;;;;;;-146.27;100.00;48445.41;5093703;28;20027;-74
2023/02/27 08:53:06;;;;;;;12.48;2.53;;;;;;;-146.27;100.00;48457.34;5095295;28;20360;-74
2023/02/27 08:55:32;;;;;;;11.30;2.60;;;;;;;-146.27;100.00;48439.41;5095041;28;20028;-74
2023/02/27 08:57:57;;;;;;;12.57;2.85;;;;;;;-146.27;99.43;48427.47;5094939;28;20106;-74
2023/02/27 09:00:23;;;;;;;5.40;2.45;;;;;;;-146.27;99.16;48451.38;5090179;28;20043;-74
2023/02/27 09:02:49;;;;;;;6.75;2.75;;;;;;;-146.27;98.74;48451.38;5094964;28;20032;-74
2023/02/27 09:05:14;;;;;;;3.65;2.28;;;;;;;-146.27;98.57;48443.41;5095071;28;20044;-74
2023/02/27 09:07:40;;;;;;;11.13;2.88;;;;;;;-146.27;98.59;48467.31;5094650;28;20510;-73
2023/02/27 09:10:06;;;;;;;6.03;2.47;;;;;;;-146.27;98.21;48435.44;5085419;28;20024;-75
2023/02/27 09:12:32;;;;;;;9.73;2.55;;;;;;;-146.27;98.09;48445.41;5094995;28;20078;-74
2023/02/27 09:14:57;;;;;;;4.85;1.90;;;;;;;-146.27;97.31;48453.38;5093285;28;20081;-74
2023/02/27 09:17:23;;;;;;;10.43;2.67;;;;;;;-146.27;96.65;48427.47;5092587;28;20036;-75
2023/02/27 09:19:50;;;;;;;5.60;2.50;;;;;;;-146.27;96.05;48459.34;5092963;28;20020;-74
2023/02/27 09:22:16;;;;;;;7.32;2.83;;;;;;;-146.27;96.14;48435.44;5094872;28;20032;-74
2023/02/27 09:24:42;;;;;;;4.63;2.38;;;;;;;-146.27;95.94;48443.41;5094945;28;20531;-74
2023/02/27 09:27:07;;;;;;;11.20;2.45;;;;;;;-146.27;94.54;48435.44;5090794;28;20028;-74
2023/02/27 09:29:32;;;;;;;4.97;2.20;;;;;;;-146.27;90.81;48463.31;5094188;28;20115;-74
2023/02/27 09:31:58;;;;;;;10.18;2.33;;;;;;;-146.27;88.97;48475.28;5081371;28;20107;-74
2023/02/27 09:34:23;;;;;;;5.82;2.63;;;;;;;-146.27;87.35;48411.53;5086639;28;20024;-73
2023/02/27 09:36:48;;;;;;;12.88;2.88;;;;;;;-146.27;85.68;48467.31;5092002;28;20024;-75
2023/02/27 09:39:14;;;;;;;9.60;2.45;;;;;;;-146.27;85.13;48445.41;5086437;28;20032;-75
2023/02/27 09:42:02;;;;;;;6.85;1.90;;;;;;;-146.27;83.09;48435.44;5087394;28;20012;-74
2023/02/27 09:44:57;;;;;;;11.65;3.65;;;;;;;-146.27;82.03;48461.34;5089317;28;20027;-73
2023/02/27 09:47:24;;;;;;;;;;;;;;;-146.27;82.57;48447.38;5085760;28;20051;-74
2023/02/27 09:50:00;;;;;;;14.55;2.20;;;;;;;-146.27;83.02;48419.50;5092895;28;20010;-75
2023/02/27 09:52:28;;;;;;;4.80;1.48;;;;;;;-146.27;78.60;48459.34;5094110;28;20020;-74
2023/02/27 09:54:54;;;;;;;7.78;1.55;;;;;;;-146.27;75.11;48435.44;5094167;28;20038;-74
2023/02/27 09:57:51;;;;;;;4.75;1.67;;;;;;;-146.27;70.86;48421.50;5094325;28;20028;-74
2023/02/27 10:00:29;;;;;;;6.43;1.10;;;;;;;-146.27;67.01;48391.63;5092780;28;20028;-73
2023/02/27 10:03:02;;;;;;;5.72;1.35;;;;;;;-146.27;62.70;48467.31;5089683;28;20118;-74
2023/02/27 10:05:54;;;;;;;7.53;1.75;;;;;;;-146.27;62.46;48385.66;5091707;28;20039;-74
2023/02/27 10:08:33;;;;;;;4.07;1.40;;;;;;;-146.27;57.41;48423.50;5085316;28;20399;-75
2023/02/27 10:11:03;;;;;;;7.63;1.38;;;;;;;-146.27;60.67;48403.56;5075184;28;20031;-73
2023/02/27 10:13:38;;;;;;;7.22;2.10;;;;;;;-146.27;63.91;48403.56;5094197;28;20482;-74
2023/02/27 10:16:05;;;;;;;9.75;1.80;;;;;;;-146.27;64.73;48375.69;5094032;28;20099;-74
2023/02/27 10:18:54;;;;;;;4.95;1.40;;;;;;;-146.27;67.49;48401.56;5092652;28;20031;-74
2023/02/27 10:21:25;;;;;;;4.53;1.50;;;;;;;-146.27;65.15;48419.50;5087714;28;20039;-74
2023/02/27 10:24:12;;;;;;;5.75;1.67;;;;;;;-146.27;64.17;48411.53;5072486;28;20040;-73
2023/02/27 10:26:41;;;;;;;5.43;1.30;;;;;;;-146.27;65.45;48407.56;5084085;28;20479;-73
2023/02/27 10:29:26;;;;;;;4.63;1.25;;;;;;;-146.27;66.73;48381.66;5092704;28;20114;-73
2023/02/27 10:31:59;;;;;;;1.95;1.10;;;;;;;-146.27;68.35;48391.63;5092401;28;20028;-74
2023/02/27 10:34:27;;;;;;;5.33;1.33;;;;;;;-146.27;66.42;48371.69;5093722;28;20024;-74
2023/02/27 10:36:53;;;;;;;3.22;1.25;;;;;;;-146.27;67.61;48395.59;5091651;28;20035;-75
2023/02/27 10:39:21;;;;;;;3.95;1.30;;;;;;;-146.27;56.89;48367.72;5092218;28;20024;-73
2023/02/27 10:41:48;;;;;;;3.13;1.20;;;;;;;-146.27;55.08;48415.53;5090469;28;20459;-75
2023/02/27 10:44:17;;;;;;;6.00;1.25;;;;;;;-146.27;53.35;48363.75;5093186;28;20099;-74
2023/02/27 10:46:43;;;;;;;5.28;1.08;;;;;;;-146.27;52.11;48395.59;5093163;28;20028;-74
2023/02/27 10:49:17;;;;;;;7.50;1.27;;;;;;;-146.27;52.09;48359.75;5093131;28;20372;-73
2023/02/27 10:51:43;;;;;;;;;;;;;;;-146.27;50.16;48355.78;5089297;28;20056;-74
2023/02/27 10:54:17;;;;;;;4.50;1.08;;;;;;;-146.27;46.38;48415.53;5088331;28;19912;-73
2023/02/27 10:57:04;;;;;;;5.60;1.10;;;;;;;-146.27;46.75;48355.78;5090337;28;20024;-73
2023/02/27 10:59:36;;;;;;;4.25;1.05;;;;;;;-146.27;44.76;48355.78;5093260;28;20118;-73
2023/02/27 11:02:16;;;;;;;9.65;1.25;;;;;;;-146.27;44.94;48347.81;5084911;28;20345;-74
2023/02/27 11:04:52;;;;;;;4.82;0.90;;;;;;;-146.27;43.27;48351.78;5092967;28;20034;-73
2023/02/27 11:07:27;;;;;;;5.65;1.10;;;;;;;-146.27;42.09;48371.69;5091656;28;20056;-73
2023/02/27 11:10:20;;;;;;;3.08;1.23;;;;;;;-146.27;40.39;48357.75;5092617;28;20028;-72
2023/02/27 11:13:20;;;;;;;6.13;1.17;;;;;;;-146.27;39.05;48333.88;5088737;28;20125;-74
2023/02/27 11:16:22;;;;;;;3.33;0.70;;;;;;;-146.27;39.02;48363.75;5090798;28;20442;-73
2023/02/27 11:18:50;;;;;;;3.47;1.08;;;;;;;-146.27;40.08;48377.69;5091986;28;20035;-73
2023/02/27 11:21:25;;;;;;;3.00;0.90;;;;;;;-146.27;40.63;48375.69;5085474;28;20077;-74
2023/02/27 11:23:59;;;;;;;4.07;0.80;;;;;;;-146.27;40.58;48355.78;5089432;28;20422;-75
2023/02/27 11:26:56;;;;;;;5.68;1.30;;;;;;;-146.27;39.82;48343.81;5086668;28;20044;-74
2023/02/27 11:29:22;;;;;;;4.05;0.70;;;;;;;-146.27;40.99;48343.81;5086671;28;20036;-75
2023/02/27 11:32:01;;;;;;;3.63;0.90;;;;;;;-146.27;41.74;48383.66;5089798;28;20028;-75
2023/02/27 11:34:33;;;;;;;4.70;0.60;;;;;;;-146.27;40.99;48347.81;5093233;28;20035;-74